Time;durP1;ratioP1;P1;durP2;ratioP2;P2;SDS_P1;SDS_P2;PMS_P1;PMS_P2;Temp;Humidity;BMP_temperature;BMP_pressure;BME280_temperature;BME280_humidity;BME280_pressure;Samples;Min_cycle;Max_cycle;Signal;HPM_P1;HPM_P2
2021/12/02 00:00:32;;;;;;;;;;;;;;;;;;5015873;28;19932;-80
2021/12/02 00:02:58;;;;;;;;;;;;;;;;;;5015084;28;19917;-80
2021/12/02 00:05:24;;;;;;;;;;;;;;;;;;5017398;28;19944;-80
2021/12/02 00:07:51;;;;;;;;;;;;;;;;;;5011362;28;19952;-82
2021/12/02 00:10:17;;;;;;;;;;;;;;;;;;5008587;28;19921;-82
2021/12/02 00:12:43;;;;;;;;;;;;;;;;;;5016836;28;19920;-83
2021/12/02 00:15:18;;;;;;;;;;;;;;;;;;5008688;28;19995;-81
2021/12/02 00:17:52;;;;;;;;;;;;;;;;;;5011107;28;20297;-83
2021/12/02 00:23:03;;;;;;;;;;;;;;;;;;5013343;28;20290;-82
2021/12/02 00:25:28;;;;;;;;;;;;;;;;;;5013531;28;19914;-82
2021/12/02 00:27:54;;;;;;;;;;;;;;;;;;5014671;28;20466;-79
2021/12/02 00:30:20;;;;;;;;;;;;;;;;;;5009858;28;19921;-79
2021/12/02 00:32:46;;;;;;;;;;;;;;;;;;5013059;28;19913;-81
2021/12/02 00:35:12;;;;;;;;;;;;;;;;;;5015410;28;19924;-82
2021/12/02 00:37:38;;;;;;;;;;;;;;;;;;5011319;28;20048;-81
2021/12/02 00:40:04;;;;;;;;;;;;;;;;;;5013872;28;19921;-83
2021/12/02 00:42:30;;;;;;;;;;;;;;;;;;5014223;28;19936;-83
2021/12/02 00:44:56;;;;;;;;;;;;;;;;;;5012377;28;19949;-82
2021/12/02 00:47:21;;;;;;;;;;;;;;;;;;5012366;28;19921;-82
2021/12/02 00:49:47;;;;;;;;;;;;;;;;;;5011808;28;20434;-83
2021/12/02 00:52:13;;;;;;;;;;;;;;;;;;5016683;28;20016;-83
2021/12/02 00:54:39;;;;;;;;;;;;;;;;;;5015569;28;19928;-82
2021/12/02 00:57:05;;;;;;;;;;;;;;;;;;5010122;28;20010;-83
2021/12/02 00:59:31;;;;;;;;;;;;;;;;;;5011371;28;19928;-82
2021/12/02 01:01:57;;;;;;;;;;;;;;;;;;5016295;28;20027;-82
2021/12/02 01:04:23;;;;;;;;;;;;;;;;;;5010075;28;20028;-83
2021/12/02 01:06:49;;;;;;;;;;;;;;;;;;5013780;28;19927;-83
2021/12/02 01:09:15;;;;;;;;;;;;;;;;;;5009402;28;19921;-82
2021/12/02 01:11:40;;;;;;;;;;;;;;;;;;5015274;28;19921;-82
2021/12/02 01:14:06;;;;;;;;;;;;;;;;;;5012363;28;19915;-82
2021/12/02 01:16:32;;;;;;;;;;;;;;;;;;5013439;28;19937;-83
2021/12/02 01:19:01;;;;;;;;;;;;;;;;;;5010050;28;19917;-83
2021/12/02 01:21:27;;;;;;;;;;;;;;;;;;5014408;28;19920;-83
2021/12/02 01:23:53;;;;;;;;;;;;;;;;;;5012879;28;19917;-82
2021/12/02 01:26:19;;;;;;;;;;;;;;;;;;5014162;28;20058;-82
2021/12/02 01:28:45;;;;;;;;;;;;;;;;;;5010811;28;20214;-83
2021/12/02 01:31:11;;;;;;;;;;;;;;;;;;5011147;28;19922;-81
2021/12/02 01:33:37;;;;;;;;;;;;;;;;;;5008936;28;20177;-83
2021/12/02 01:36:02;;;;;;;;;;;;;;;;;;5011565;28;19917;-83
2021/12/02 01:38:28;;;;;;;;;;;;;;;;;;5016366;28;20392;-81
2021/12/02 01:40:54;;;;;;;;;;;;;;;;;;5013729;28;19917;-83
2021/12/02 01:43:20;;;;;;;;;;;;;;;;;;5015900;28;19964;-82
2021/12/02 01:45:46;;;;;;;;;;;;;;;;;;5018187;28;19913;-83
2021/12/02 01:48:14;;;;;;;;;;;;;;;;;;5011281;28;20004;-83
2021/12/02 01:50:40;;;;;;;;;;;;;;;;;;5017444;28;20354;-82
2021/12/02 01:53:06;;;;;;;;;;;;;;;;;;5014617;28;19923;-82
2021/12/02 01:55:32;;;;;;;;;;;;;;;;;;5013045;28;19940;-81
2021/12/02 01:57:59;;;;;;;;;;;;;;;;;;5008570;28;19917;-79
2021/12/02 02:00:25;;;;;;;;;;;;;;;;;;5012229;28;19952;-80
2021/12/02 02:02:51;;;;;;;;;;;;;;;;;;5009245;28;20162;-82
2021/12/02 02:05:17;;;;;;;;;;;;;;;;;;5010303;28;19918;-82
2021/12/02 02:07:43;;;;;;;;;;;;;;;;;;5010288;28;19963;-79
2021/12/02 02:10:08;;;;;;;;;;;;;;;;;;5014294;28;20063;-80
2021/12/02 02:12:34;;;;;;;;;;;;;;;;;;5009261;28;19932;-80
2021/12/02 02:15:00;;;;;;;;;;;;;;;;;;5009255;28;20127;-82
2021/12/02 02:17:29;;;;;;;;;;;;;;;;;;5014580;28;19917;-79
2021/12/02 02:19:56;;;;;;;;;;;;;;;;;;5014830;28;19920;-81
2021/12/02 02:22:23;;;;;;;;;;;;;;;;;;5008787;28;20391;-82
2021/12/02 02:24:49;;;;;;;;;;;;;;;;;;5008673;28;20345;-80
2021/12/02 02:27:15;;;;;;;;;;;;;;;;;;5009497;28;19921;-79
2021/12/02 02:29:41;;;;;;;;;;;;;;;;;;5014046;28;19921;-81
2021/12/02 02:32:07;;;;;;;;;;;;;;;;;;5011503;28;20393;-81
2021/12/02 02:34:33;;;;;;;;;;;;;;;;;;5010686;28;19923;-82
2021/12/02 02:37:02;;;;;;;;;;;;;;;;;;5014559;28;19913;-82
2021/12/02 02:39:30;;;;;;;;;;;;;;;;;;5017025;28;19968;-81
2021/12/02 02:42:00;;;;;;;;;;;;;;;;;;5015565;28;20266;-81
2021/12/02 02:44:26;;;;;;;;;;;;;;;;;;5016807;28;20008;-81
2021/12/02 02:46:52;;;;;;;;;;;;;;;;;;5012185;28;19984;-83
2021/12/02 02:49:18;;;;;;;;;;;;;;;;;;5010213;28;20672;-82
2021/12/02 02:51:46;;;;;;;;;;;;;;;;;;5019540;28;20305;-81
2021/12/02 02:54:13;;;;;;;;;;;;;;;;;;5017221;28;20330;-79
2021/12/02 02:56:43;;;;;;;;;;;;;;;;;;5017417;28;19928;-82
2021/12/02 02:59:21;;;;;;;;;;;;;;;;;;5018571;28;20289;-81
2021/12/02 03:02:14;;;;;;;;;;;;;;;;;;5015663;28;19961;-80
2021/12/02 03:07:26;;;;;;;;;;;;;;;;;;5014191;28;19963;-78
2021/12/02 03:12:29;;;;;;;;;;;;;;;;;;5012574;28;19948;-82
2021/12/02 03:17:27;;;;;;;;;;;;;;;;;;5011262;28;20360;-82
2021/12/02 03:19:53;;;;;;;;;;;;;;;;;;5014943;28;19917;-82
2021/12/02 03:22:18;;;;;;;;;;;;;;;;;;5017803;28;19913;-82
2021/12/02 03:24:44;;;;;;;;;;;;;;;;;;5020055;28;20283;-82
2021/12/02 03:27:10;;;;;;;;;;;;;;;;;;5012022;28;19957;-81
2021/12/02 03:29:36;;;;;;;;;;;;;;;;;;5016654;28;20354;-82
2021/12/02 03:32:02;;;;;;;;;;;;;;;;;;5012170;28;19922;-83
2021/12/02 03:34:28;;;;;;;;;;;;;;;;;;5013928;28;21848;-83
2021/12/02 03:36:54;;;;;;;;;;;;;;;;;;5015678;28;19917;-82
2021/12/02 03:39:20;;;;;;;;;;;;;;;;;;5018206;28;20599;-82
2021/12/02 03:41:45;;;;;;;;;;;;;;;;;;5012960;28;19967;-81
2021/12/02 03:44:11;;;;;;;;;;;;;;;;;;5012918;28;19924;-82
2021/12/02 03:46:37;;;;;;;;;;;;;;;;;;5010511;28;19988;-82
2021/12/02 03:49:03;;;;;;;;;;;;;;;;;;5010158;28;20114;-82
2021/12/02 03:51:29;;;;;;;;;;;;;;;;;;5017948;28;20369;-82
2021/12/02 03:53:55;;;;;;;;;;;;;;;;;;5016675;28;20117;-82
2021/12/02 03:56:21;;;;;;;;;;;;;;;;;;5014883;28;20398;-82
2021/12/02 03:58:47;;;;;;;;;;;;;;;;;;5015457;28;20289;-82
2021/12/02 04:01:13;;;;;;;;;;;;;;;;;;5014519;28;20000;-82
2021/12/02 04:03:38;;;;;;;;;;;;;;;;;;5012594;28;20337;-82
2021/12/02 04:06:04;;;;;;;;;;;;;;;;;;5009700;28;19918;-82
2021/12/02 04:11:22;;;;;;;;;;;;;;;;;;5014749;28;20171;-82
2021/12/02 04:16:35;;;;;;;;;;;;;;;;;;5011315;28;20495;-81
2021/12/02 04:19:01;;;;;;;;;;;;;;;;;;5012203;28;20231;-81
2021/12/02 04:21:27;;;;;;;;;;;;;;;;;;5014864;28;19978;-82
2021/12/02 04:23:53;;;;;;;;;;;;;;;;;;5014535;28;20252;-83
2021/12/02 04:26:19;;;;;;;;;;;;;;;;;;5012510;28;19956;-81
2021/12/02 04:28:45;;;;;;;;;;;;;;;;;;5015694;28;20431;-82
2021/12/02 04:31:11;;;;;;;;;;;;;;;;;;5015713;28;19918;-82
2021/12/02 04:33:36;;;;;;;;;;;;;;;;;;5015180;28;19952;-81
2021/12/02 04:36:03;;;;;;;;;;;;;;;;;;5014009;28;20377;-82
2021/12/02 04:38:28;;;;;;;;;;;;;;;;;;5010533;28;19919;-81
2021/12/02 04:40:54;;;;;;;;;;;;;;;;;;5015393;28;20565;-82
2021/12/02 04:43:20;;;;;;;;;;;;;;;;;;5016452;28;20397;-81
2021/12/02 04:45:46;;;;;;;;;;;;;;;;;;5013553;28;19996;-81
2021/12/02 04:48:12;;;;;;;;;;;;;;;;;;5005944;28;19921;-82
2021/12/02 04:50:38;;;;;;;;;;;;;;;;;;5011211;28;19914;-82
2021/12/02 04:53:04;;;;;;;;;;;;;;;;;;5015153;28;19967;-82
2021/12/02 04:55:30;;;;;;;;;;;;;;;;;;5013913;28;19913;-82
2021/12/02 04:57:56;;;;;;;;;;;;;;;;;;5009789;28;20459;-80
2021/12/02 05:00:22;;;;;;;;;;;;;;;;;;5011304;28;20251;-81
2021/12/02 05:02:48;;;;;;;;;;;;;;;;;;5015189;28;19992;-81
2021/12/02 05:05:14;;;;;;;;;;;;;;;;;;5015612;28;19913;-80
2021/12/02 05:07:39;;;;;;;;;;;;;;;;;;5019129;28;19952;-79
2021/12/02 05:10:05;;;;;;;;;;;;;;;;;;5009903;28;19921;-80
2021/12/02 05:12:31;;;;;;;;;;;;;;;;;;5011034;28;20020;-80
2021/12/02 05:14:57;;;;;;;;;;;;;;;;;;5011911;28;20352;-82
2021/12/02 05:17:23;;;;;;;;;;;;;;;;;;5017310;28;19913;-83
2021/12/02 05:19:49;;;;;;;;;;;;;;;;;;5010496;28;20351;-81
2021/12/02 05:22:15;;;;;;;;;;;;;;;;;;5006496;28;19994;-82
2021/12/02 05:24:40;;;;;;;;;;;;;;;;;;5010061;28;19924;-80
2021/12/02 05:27:06;;;;;;;;;;;;;;;;;;5013516;28;19924;-80
2021/12/02 05:29:32;;;;;;;;;;;;;;;;;;5008372;28;20009;-80
2021/12/02 05:31:58;;;;;;;;;;;;;;;;;;5017511;28;20347;-80
2021/12/02 05:34:24;;;;;;;;;;;;;;;;;;5016762;28;19921;-79
2021/12/02 05:36:50;;;;;;;;;;;;;;;;;;5007804;28;20414;-79
2021/12/02 05:39:16;;;;;;;;;;;;;;;;;;5013796;28;19921;-81
2021/12/02 05:41:42;;;;;;;;;;;;;;;;;;5015209;28;20305;-81
2021/12/02 05:44:07;;;;;;;;;;;;;;;;;;5011359;28;19913;-80
2021/12/02 05:46:33;;;;;;;;;;;;;;;;;;5016878;28;20004;-79
2021/12/02 05:48:59;;;;;;;;;;;;;;;;;;5014854;28;21075;-80
2021/12/02 05:51:25;;;;;;;;;;;;;;;;;;5008897;28;19920;-80
2021/12/02 05:53:51;;;;;;;;;;;;;;;;;;5009843;28;19978;-79
2021/12/02 05:56:17;;;;;;;;;;;;;;;;;;5015061;28;19921;-79
2021/12/02 05:58:43;;;;;;;;;;;;;;;;;;5014203;28;20370;-79
2021/12/02 06:01:09;;;;;;;;;;;;;;;;;;5006860;28;19921;-79
2021/12/02 06:03:36;;;;;;;;;;;;;;;;;;5013985;28;19959;-79
2021/12/02 06:06:02;;;;;;;;;;;;;;;;;;5006362;28;20330;-80
2021/12/02 06:08:28;;;;;;;;;;;;;;;;;;5014404;28;20059;-79
2021/12/02 06:10:54;;;;;;;;;;;;;;;;;;5011463;28;20332;-80
2021/12/02 06:13:20;;;;;;;;;;;;;;;;;;5012124;28;19925;-81
2021/12/02 06:15:46;;;;;;;;;;;;;;;;;;5015296;28;19918;-79
2021/12/02 06:18:12;;;;;;;;;;;;;;;;;;5010615;28;19913;-80
2021/12/02 06:20:37;;;;;;;;;;;;;;;;;;5013892;28;19917;-80
2021/12/02 06:23:03;;;;;;;;;;;;;;;;;;5013815;28;20336;-81
2021/12/02 06:27:56;;;;;;;;;;;;;;;;;;5014795;28;20341;-80
2021/12/02 06:30:22;;;;;;;;;;;;;;;;;;5015816;28;19913;-81
2021/12/02 06:32:48;;;;;;;;;;;;;;;;;;5015079;28;19936;-80
2021/12/02 06:35:13;;;;;;;;;;;;;;;;;;5009433;28;19960;-80
2021/12/02 06:37:39;;;;;;;;;;;;;;;;;;5015470;28;20267;-80
2021/12/02 06:40:05;;;;;;;;;;;;;;;;;;5012695;28;19917;-81
2021/12/02 06:42:31;;;;;;;;;;;;;;;;;;5012131;28;20004;-81
2021/12/02 06:44:57;;;;;;;;;;;;;;;;;;5012853;28;19917;-84
2021/12/02 06:47:28;;;;;;;;;;;;;;;;;;5013607;28;19917;-83
2021/12/02 06:49:56;;;;;;;;;;;;;;;;;;5017438;28;19913;-82
2021/12/02 06:52:23;;;;;;;;;;;;;;;;;;5014881;28;19991;-81
2021/12/02 06:54:49;;;;;;;;;;;;;;;;;;5013065;28;19989;-81
2021/12/02 06:57:16;;;;;;;;;;;;;;;;;;5010329;28;20134;-80
2021/12/02 06:59:42;;;;;;;;;;;;;;;;;;5013302;28;19913;-80
2021/12/02 07:02:08;;;;;;;;;;;;;;;;;;5013709;28;19959;-81
2021/12/02 07:04:34;;;;;;;;;;;;;;;;;;5011094;28;20030;-79
2021/12/02 07:07:00;;;;;;;;;;;;;;;;;;5019190;28;20294;-80
2021/12/02 07:09:25;;;;;;;;;;;;;;;;;;5020909;28;19921;-82
2021/12/02 07:11:51;;;;;;;;;;;;;;;;;;5011029;28;20374;-80
2021/12/02 07:14:19;;;;;;;;;;;;;;;;;;5011050;28;19924;-81
2021/12/02 07:16:46;;;;;;;;;;;;;;;;;;5015971;28;20221;-81
2021/12/02 07:19:12;;;;;;;;;;;;;;;;;;5016172;28;19917;-81
2021/12/02 07:21:39;;;;;;;;;;;;;;;;;;5017901;28;19971;-81
2021/12/02 07:24:05;;;;;;;;;;;;;;;;;;5011834;28;20369;-81
2021/12/02 07:26:31;;;;;;;;;;;;;;;;;;5016782;28;20023;-80
2021/12/02 07:28:57;;;;;;;;;;;;;;;;;;5011675;28;19913;-81
2021/12/02 07:31:23;;;;;;;;;;;;;;;;;;5013174;28;20245;-80
2021/12/02 07:33:48;;;;;;;;;;;;;;;;;;5009960;28;19943;-81
2021/12/02 07:36:14;;;;;;;;;;;;;;;;;;5015963;28;19917;-81
2021/12/02 07:38:40;;;;;;;;;;;;;;;;;;5013224;28;19925;-80
2021/12/02 07:41:06;;;;;;;;;;;;;;;;;;5016206;28;19925;-81
2021/12/02 07:43:33;;;;;;;;;;;;;;;;;;5014086;28;19926;-80
2021/12/02 07:45:58;;;;;;;;;;;;;;;;;;5015775;28;19921;-81
2021/12/02 07:48:26;;;;;;;;;;;;;;;;;;5008531;28;19924;-81
2021/12/02 07:50:51;;;;;;;;;;;;;;;;;;5009687;28;20224;-82
2021/12/02 07:53:17;;;;;;;;;;;;;;;;;;5013872;28;20277;-81
2021/12/02 07:55:43;;;;;;;;;;;;;;;;;;5015352;28;20373;-82
2021/12/02 07:58:09;;;;;;;;;;;;;;;;;;5015319;28;19926;-82
2021/12/02 08:00:35;;;;;;;;;;;;;;;;;;5012059;28;19924;-81
2021/12/02 08:03:01;;;;;;;;;;;;;;;;;;5011219;28;19917;-80
2021/12/02 08:05:27;;;;;;;;;;;;;;;;;;5011896;28;19965;-80
2021/12/02 08:07:53;;;;;;;;;;;;;;;;;;5010811;28;19921;-81
2021/12/02 08:10:19;;;;;;;;;;;;;;;;;;5014034;28;19928;-80
2021/12/02 08:12:49;;;;;;;;;;;;;;;;;;5013778;28;20222;-81
2021/12/02 08:15:15;;;;;;;;;;;;;;;;;;5007797;28;19924;-80
2021/12/02 08:17:40;;;;;;;;;;;;;;;;;;5010325;28;20381;-80
2021/12/02 08:20:06;;;;;;;;;;;;;;;;;;5011254;28;19918;-81
2021/12/02 08:22:32;;;;;;;;;;;;;;;;;;5015344;28;19994;-79
2021/12/02 08:24:58;;;;;;;;;;;;;;;;;;5018553;28;20020;-79
2021/12/02 08:27:24;;;;;;;;;;;;;;;;;;5033841;28;19932;-82
2021/12/02 08:32:41;;;;;;;;;;;;;;;;;;5024940;28;19923;-79
2021/12/02 08:35:07;;;;;;;;;;;;;;;;;;5033603;28;20519;-80
2021/12/02 08:37:36;;;;;;;;;;;;;;;;;;5028905;28;19952;-81
2021/12/02 08:40:03;;;;;;;;;;;;;;;;;;5019329;28;19921;-80
2021/12/02 08:42:32;;;;;;;;;;;;;;;;;;5028137;28;19913;-80
2021/12/02 08:44:57;;;;;;;;;;;;;;;;;;5024973;28;19929;-79
2021/12/02 08:47:25;;;;;;;;;;;;;;;;;;5042330;28;19917;-81
2021/12/02 08:49:54;;;;;;;;;;;;;;;;;;5039901;28;19917;-80
2021/12/02 08:52:20;;;;;;;;;;;;;;;;;;5017530;28;19909;-81
2021/12/02 08:54:46;;;;;;;;;;;;;;;;;;5030370;28;20016;-80
2021/12/02 08:57:14;;;;;;;;;;;;;;;;;;5036937;28;19916;-80
2021/12/02 08:59:43;;;;;;;;;;;;;;;;;;5019690;28;19964;-81
2021/12/02 09:02:09;;;;;;;;;;;;;;;;;;5020110;28;19909;-80
2021/12/02 09:04:35;;;;;;;;;;;;;;;;;;5030603;28;19914;-83
2021/12/02 09:07:01;;;;;;;;;;;;;;;;;;5038443;28;20281;-82
2021/12/02 09:09:27;;;;;;;;;;;;;;;;;;5041496;28;19952;-80
2021/12/02 09:11:55;;;;;;;;;;;;;;;;;;5037865;28;19909;-79
2021/12/02 09:14:21;;;;;;;;;;;;;;;;;;5037006;28;20598;-81
2021/12/02 09:16:48;;;;;;;;;;;;;;;;;;5031390;28;19913;-80
2021/12/02 09:19:15;;;;;;;;;;;;;;;;;;5035602;28;19955;-80
2021/12/02 09:21:41;;;;;;;;;;;;;;;;;;5037339;28;19935;-80
2021/12/02 09:24:07;;;;;;;;;;;;;;;;;;5044036;28;19909;-81
2021/12/02 09:26:33;;;;;;;;;;;;;;;;;;5032593;28;19917;-81
2021/12/02 09:28:59;;;;;;;;;;;;;;;;;;5030048;28;20266;-79
2021/12/02 09:31:25;;;;;;;;;;;;;;;;;;5026144;28;20015;-80
2021/12/02 09:33:51;;;;;;;;;;;;;;;;;;5022756;28;19981;-81
2021/12/02 09:36:20;;;;;;;;;;;;;;;;;;5030151;28;19923;-81
2021/12/02 09:38:46;;;;;;;;;;;;;;;;;;5032897;28;20040;-80
2021/12/02 09:41:12;;;;;;;;;;;;;;;;;;5027742;28;19922;-80
2021/12/02 09:43:38;;;;;;;;;;;;;;;;;;5024023;28;19991;-80
2021/12/02 09:46:04;;;;;;;;;;;;;;;;;;5030364;28;19919;-80
2021/12/02 09:51:24;;;;;;;;;;;;;;;;;;5035601;28;19920;-79
2021/12/02 09:56:21;;;;;;;;;;;;;;;;;;5041190;28;19938;-80
2021/12/02 09:58:49;;;;;;;;;;;;;;;;;;5036827;28;19913;-80
2021/12/02 10:01:18;;;;;;;;;;;;;;;;;;5036783;28;19916;-80
2021/12/02 10:03:47;;;;;;;;;;;;;;;;;;5038614;28;19979;-79
2021/12/02 10:06:19;;;;;;;;;;;;;;;;;;5032350;28;20568;-80
2021/12/02 10:08:53;;;;;;;;;;;;;;;;;;5028680;28;19917;-80
2021/12/02 10:12:00;;;;;;;;;;;;;;;;;;5085181;27;20328;-70
2021/12/02 10:14:29;;;;;;;;;;;;;;;;;;5089653;28;19923;-72
2021/12/02 10:16:55;;;;;;;;;;;;;;;;;;5079035;28;19916;-71
2021/12/02 10:19:23;;;;;;;;;;;;;;;;;;5075229;28;19923;-71
2021/12/02 10:22:09;;;;;;;;;;;;;;;;;;5078837;28;19923;-71
2021/12/02 10:24:35;;;;;;;;;;;;;;;;;;5078749;28;19916;-70
2021/12/02 10:27:01;;;;;;;;;;;;;;;;;;5075937;28;19923;-70
2021/12/02 10:29:27;;;;;;;;;;;;;;;;;;5078407;28;19916;-71
2021/12/02 10:31:53;;;;;;;;;;;;;;;;;;5096803;27;20409;-71
2021/12/02 10:34:19;;;;;;;;;;;;;;;;;;5097065;28;19916;-74
2021/12/02 10:36:44;;;;;;;;;;;;;;;;;;5078124;28;19923;-73
2021/12/02 10:39:10;;;;;;;;;;;;;;;;;;5079010;28;19916;-71
2021/12/02 10:41:36;;;;;;;;;;;;;;;;;;5092801;28;19912;-71
2021/12/02 10:44:04;;;;;;;;;;;;;;;;;;5087175;28;19930;-71
2021/12/02 10:46:30;;;;;;;;;;;;;;;;;;5082645;28;19977;-71
2021/12/02 10:48:56;;;;;;;;;;;;;;;;;;5081605;28;19920;-71
2021/12/02 10:51:21;;;;;;;;;;;;;;;;;;5082493;28;20033;-70
2021/12/02 10:53:47;;;;;;;;;;;;;;;;;;5079811;28;19917;-69
2021/12/02 10:56:13;;;;;;;;;;;;;;;;;;5082561;28;19927;-71
2021/12/02 10:58:39;;;;;;;;;;;;;;;;;;5083101;28;19916;-71
2021/12/02 11:01:05;;;;;;;;;;;;;;;;;;5081689;28;19932;-70
2021/12/02 11:03:31;;;;;;;;;;;;;;;;;;5081588;28;20301;-69
2021/12/02 11:05:57;;;;;;;;;;;;;;;;;;5081535;28;20334;-69
2021/12/02 11:08:23;;;;;;;;;;;;;;;;;;5081996;28;20251;-69
2021/12/02 11:10:49;;;;;;;;;;;;;;;;;;5082653;28;19977;-68
2021/12/02 11:13:15;;;;;;;;;;;;;;;;;;5081619;28;19924;-68
2021/12/02 11:15:41;;;;;;;;;;;;;;;;;;5080951;28;20303;-69
2021/12/02 11:18:06;;;;;;;;;;;;;;;;;;5076239;28;19916;-68
2021/12/02 11:20:32;;;;;;;;;;;;;;;;;;5086928;28;19916;-71
2021/12/02 11:22:58;;;;;;;;;;;;;;;;;;5064635;28;20322;-71
2021/12/02 11:25:24;;;;;;;;;;;;;;;;;;5074049;28;19916;-71
2021/12/02 11:27:50;;;;;;;;;;;;;;;;;;5070819;28;19916;-71
2021/12/02 11:30:17;;;;;;;;;;;;;;;;;;5063918;28;19979;-70
2021/12/02 11:32:43;;;;;;;;;;;;;;;;;;5065174;28;20251;-70
2021/12/02 11:35:09;;;;;;;;;;;;;;;;;;5075032;28;19919;-71
2021/12/02 11:37:35;;;;;;;;;;;;;;;;;;5066329;28;19916;-72
2021/12/02 11:40:01;;;;;;;;;;;;;;;;;;5074532;28;19916;-71
2021/12/02 11:42:27;;;;;;;;;;;;;;;;;;5076833;28;20072;-71
2021/12/02 11:44:52;;;;;;;;;;;;;;;;;;5073163;28;19916;-71
2021/12/02 11:47:18;;;;;;;;;;;;;;;;;;5074466;28;20441;-70
2021/12/02 11:49:44;;;;;;;;;;;;;;;;;;5076787;28;20295;-71
2021/12/02 11:52:10;;;;;;;;;;;;;;;;;;5069738;28;19920;-70
2021/12/02 11:54:39;;;;;;;;;;;;;;;;;;5072455;28;20370;-70
2021/12/02 11:57:05;;;;;;;;;;;;;;;;;;5072962;28;19917;-71
2021/12/02 11:59:31;;;;;;;;;;;;;;;;;;5071550;28;19916;-71
2021/12/02 12:01:57;;;;;;;;;;;;;;;;;;5068914;28;19916;-72
2021/12/02 12:04:23;;;;;;;;;;;;;;;;;;5066057;28;19920;-70
2021/12/02 12:06:49;;;;;;;;;;;;;;;;;;5068081;28;20012;-70
2021/12/02 12:09:16;;;;;;;;;;;;;;;;;;5069059;28;19917;-70
2021/12/02 12:11:42;;;;;;;;;;;;;;;;;;5068340;28;19931;-70
2021/12/02 12:14:08;;;;;;;;;;;;;;;;;;5061149;28;19917;-71
2021/12/02 12:16:34;;;;;;;;;;;;;;;;;;5065075;28;19946;-71
2021/12/02 12:19:00;;;;;;;;;;;;;;;;;;5067496;28;19912;-70
2021/12/02 12:21:26;;;;;;;;;;;;;;;;;;5074495;28;20069;-71
2021/12/02 12:23:52;;;;;;;;;;;;;;;;;;5065371;28;19920;-71
2021/12/02 12:26:18;;;;;;;;;;;;;;;;;;5075099;28;20015;-70
2021/12/02 12:28:44;;;;;;;;;;;;;;;;;;5063391;28;20035;-70
2021/12/02 12:31:10;;;;;;;;;;;;;;;;;;5066540;28;19985;-71
2021/12/02 12:33:40;;;;;;;;;;;;;;;;;;5059611;28;20379;-70
2021/12/02 12:36:14;;;;;;;;;;;;;;;;;;5078512;28;19919;-71
2021/12/02 12:38:40;;;;;;;;;;;;;;;;;;5063777;28;20335;-70
2021/12/02 12:41:06;;;;;;;;;;;;;;;;;;5064607;28;19916;-69
2021/12/02 12:43:34;;;;;;;;;;;;;;;;;;5067094;28;19921;-71
2021/12/02 12:46:00;;;;;;;;;;;;;;;;;;5063700;28;19923;-71
2021/12/02 12:48:25;;;;;;;;;;;;;;;;;;5070610;28;19916;-71
2021/12/02 12:50:51;;;;;;;;;;;;;;;;;;5071547;28;19920;-71
2021/12/02 12:53:18;;;;;;;;;;;;;;;;;;5069855;28;20436;-71
2021/12/02 12:55:49;;;;;;;;;;;;;;;;;;5073641;28;20283;-70
2021/12/02 12:58:15;;;;;;;;;;;;;;;;;;5065660;28;19912;-69
2021/12/02 13:00:42;;;;;;;;;;;;;;;;;;5061110;28;19913;-71
2021/12/02 13:03:11;;;;;;;;;;;;;;;;;;5072358;28;19920;-71
2021/12/02 13:05:37;;;;;;;;;;;;;;;;;;5069130;28;20403;-72
2021/12/02 13:08:03;;;;;;;;;;;;;;;;;;5071881;28;19956;-71
2021/12/02 13:10:29;;;;;;;;;;;;;;;;;;5068322;28;20482;-71
2021/12/02 13:12:58;;;;;;;;;;;;;;;;;;5066247;28;19923;-71
2021/12/02 13:15:26;;;;;;;;;;;;;;;;;;5061800;28;19916;-70
2021/12/02 13:17:52;;;;;;;;;;;;;;;;;;5059845;28;19923;-70
2021/12/02 13:20:17;;;;;;;;;;;;;;;;;;5062546;28;20125;-71
2021/12/02 13:22:43;;;;;;;;;;;;;;;;;;5064998;28;19953;-71
2021/12/02 13:25:09;;;;;;;;;;;;;;;;;;5060834;28;20052;-71
2021/12/02 13:27:36;;;;;;;;;;;;;;;;;;5060637;28;20291;-69
2021/12/02 13:30:02;;;;;;;;;;;;;;;;;;5054929;28;19924;-70
2021/12/02 13:32:28;;;;;;;;;;;;;;;;;;5064773;28;20672;-70
2021/12/02 13:34:54;;;;;;;;;;;;;;;;;;5067237;28;19922;-70
2021/12/02 13:37:20;;;;;;;;;;;;;;;;;;5060481;28;19932;-70
2021/12/02 13:39:46;;;;;;;;;;;;;;;;;;5056145;28;19929;-71
2021/12/02 13:42:12;;;;;;;;;;;;;;;;;;5056901;28;19966;-70
2021/12/02 13:44:39;;;;;;;;;;;;;;;;;;5057091;28;19968;-70
2021/12/02 13:47:13;;;;;;;;;;;;;;;;;;5060047;28;20441;-70
2021/12/02 13:49:40;;;;;;;;;;;;;;;;;;5067967;28;20287;-70
2021/12/02 13:54:53;;;;;;;;;;;;;;;;;;5070601;28;19970;-70
2021/12/02 13:57:19;;;;;;;;;;;;;;;;;;5060706;28;20388;-70
2021/12/02 13:59:45;;;;;;;;;;;;;;;;;;5056827;28;20411;-71
2021/12/02 14:02:11;;;;;;;;;;;;;;;;;;5064681;28;20810;-69
2021/12/02 14:04:37;;;;;;;;;;;;;;;;;;5063025;28;19923;-70
2021/12/02 14:07:03;;;;;;;;;;;;;;;;;;5064269;28;19916;-70
2021/12/02 14:09:29;;;;;;;;;;;;;;;;;;5064827;28;19923;-70
2021/12/02 14:11:55;;;;;;;;;;;;;;;;;;5064958;28;19920;-69
2021/12/02 14:14:21;;;;;;;;;;;;;;;;;;5058461;28;21294;-71
2021/12/02 14:16:46;;;;;;;;;;;;;;;;;;5056002;28;19920;-70
2021/12/02 14:19:12;;;;;;;;;;;;;;;;;;5056210;28;19917;-71
2021/12/02 14:21:38;;;;;;;;;;;;;;;;;;5055096;28;19924;-71
2021/12/02 14:24:05;;;;;;;;;;;;;;;;;;5064369;28;19923;-70
2021/12/02 14:26:31;;;;;;;;;;;;;;;;;;5069317;28;19916;-71
2021/12/02 14:28:58;;;;;;;;;;;;;;;;;;5062205;28;19916;-70
2021/12/02 14:31:24;;;;;;;;;;;;;;;;;;5065055;28;20431;-71
2021/12/02 14:33:52;;;;;;;;;;;;;;;;;;5059980;28;19928;-71
2021/12/02 14:36:18;;;;;;;;;;;;;;;;;;5056091;28;20353;-69
2021/12/02 14:38:44;;;;;;;;;;;;;;;;;;5055525;28;19923;-70
2021/12/02 14:41:10;;;;;;;;;;;;;;;;;;5054761;28;20423;-71
2021/12/02 14:43:36;;;;;;;;;;;;;;;;;;5059073;28;20015;-71
2021/12/02 14:46:02;;;;;;;;;;;;;;;;;;5057380;28;19927;-70
2021/12/02 14:48:27;;;;;;;;;;;;;;;;;;5059523;28;20207;-70
2021/12/02 14:50:53;;;;;;;;;;;;;;;;;;5061741;28;19931;-70
2021/12/02 14:53:19;;;;;;;;;;;;;;;;;;5062190;28;19916;-70
2021/12/02 14:55:45;;;;;;;;;;;;;;;;;;5061065;28;21430;-70
2021/12/02 14:58:11;;;;;;;;;;;;;;;;;;5062384;28;19917;-71
2021/12/02 15:00:38;;;;;;;;;;;;;;;;;;5071916;28;20392;-70
2021/12/02 15:03:04;;;;;;;;;;;;;;;;;;5067169;28;20286;-71
2021/12/02 15:05:29;;;;;;;;;;;;;;;;;;5065259;28;19920;-70
2021/12/02 15:07:55;;;;;;;;;;;;;;;;;;5070037;28;20319;-71
2021/12/02 15:10:21;;;;;;;;;;;;;;;;;;5067490;28;19920;-72
2021/12/02 15:12:47;;;;;;;;;;;;;;;;;;5067133;28;20006;-71
2021/12/02 15:15:13;;;;;;;;;;;;;;;;;;5070572;28;20039;-71
2021/12/02 15:17:39;;;;;;;;;;;;;;;;;;5065449;28;20003;-70
2021/12/02 15:20:05;;;;;;;;;;;;;;;;;;5063914;28;19947;-71
2021/12/02 15:22:31;;;;;;;;;;;;;;;;;;5067354;28;19920;-71
2021/12/02 15:24:57;;;;;;;;;;;;;;;;;;5067511;28;20380;-71
2021/12/02 15:27:23;;;;;;;;;;;;;;;;;;5065326;28;20011;-69
2021/12/02 15:29:53;;;;;;;;;;;;;;;;;;5067328;28;20380;-71
2021/12/02 15:32:19;;;;;;;;;;;;;;;;;;5065196;28;20327;-71
2021/12/02 15:34:44;;;;;;;;;;;;;;;;;;5064850;28;20488;-69
2021/12/02 15:37:10;;;;;;;;;;;;;;;;;;5065471;28;19916;-70
2021/12/02 15:39:36;;;;;;;;;;;;;;;;;;5063219;28;20441;-70
2021/12/02 15:42:02;;;;;;;;;;;;;;;;;;5063666;28;19923;-70
2021/12/02 15:44:29;;;;;;;;;;;;;;;;;;5069094;28;19916;-70
2021/12/02 15:47:00;;;;;;;;;;;;;;;;;;5064943;28;19916;-70
2021/12/02 15:49:26;;;;;;;;;;;;;;;;;;5061137;28;20529;-71
2021/12/02 15:51:57;;;;;;;;;;;;;;;;;;5063897;28;19924;-71
2021/12/02 15:54:23;;;;;;;;;;;;;;;;;;5062881;28;19921;-70
2021/12/02 15:56:49;;;;;;;;;;;;;;;;;;5065478;28;19919;-70
2021/12/02 15:59:21;;;;;;;;;;;;;;;;;;5061676;28;19963;-71
2021/12/02 16:02:32;;;;;;;;;;;;;;;;;;5071981;28;19931;-71
2021/12/02 16:04:40;;;;;;;;;;;;;;;;;;5058782;28;19923;-71
2021/12/02 16:07:09;;;;;;;;;;;;;;;;;;5057024;28;19920;-70
2021/12/02 16:14:53;;;;;;;;;;;;;;;;;;5055847;28;20024;-69
2021/12/02 16:17:18;;;;;;;;;;;;;;;;;;5053400;28;20945;-70
2021/12/02 16:19:44;;;;;;;;;;;;;;;;;;5053524;28;19913;-69
2021/12/02 16:22:10;;;;;;;;;;;;;;;;;;5061546;28;20408;-69
2021/12/02 16:24:36;;;;;;;;;;;;;;;;;;5058095;28;19935;-70
2021/12/02 16:27:02;;;;;;;;;;;;;;;;;;5064968;28;19963;-70
2021/12/02 16:29:30;;;;;;;;;;;;;;;;;;5059352;28;19917;-69
2021/12/02 16:31:56;;;;;;;;;;;;;;;;;;5058015;28;19925;-69
2021/12/02 16:34:22;;;;;;;;;;;;;;;;;;5051000;28;19913;-70
2021/12/02 16:36:48;;;;;;;;;;;;;;;;;;5059247;28;19920;-71
2021/12/02 16:39:14;;;;;;;;;;;;;;;;;;5069219;28;19908;-70
2021/12/02 16:41:40;;;;;;;;;;;;;;;;;;5050589;28;20372;-70
2021/12/02 16:44:06;;;;;;;;;;;;;;;;;;5050396;28;19919;-70
2021/12/02 16:46:32;;;;;;;;;;;;;;;;;;5058538;28;20003;-70
2021/12/02 16:48:58;;;;;;;;;;;;;;;;;;5057135;28;19913;-70
2021/12/02 16:51:29;;;;;;;;;;;;;;;;;;5052659;28;19925;-70
2021/12/02 16:53:55;;;;;;;;;;;;;;;;;;5056480;28;19962;-68
2021/12/02 16:56:20;;;;;;;;;;;;;;;;;;5056622;28;19913;-70
2021/12/02 16:58:46;;;;;;;;;;;;;;;;;;5057648;28;20463;-69
2021/12/02 17:01:12;;;;;;;;;;;;;;;;;;5051820;28;19921;-69
2021/12/02 17:03:38;;;;;;;;;;;;;;;;;;5052148;28;19991;-69
2021/12/02 17:06:04;;;;;;;;;;;;;;;;;;5058096;28;20375;-68
2021/12/02 17:08:32;;;;;;;;;;;;;;;;;;5065230;28;19912;-69
2021/12/02 17:10:58;;;;;;;;;;;;;;;;;;5058792;28;19924;-69
2021/12/02 17:13:24;;;;;;;;;;;;;;;;;;5055789;28;19920;-70
2021/12/02 17:15:50;;;;;;;;;;;;;;;;;;5061082;28;19912;-68